sensor_id;sensor_type;location;lat;lon;timestamp;P1;durP1;ratioP1;P2;durP2;ratioP2
14133;SDS011;7147;59.364;18.018;2022-10-17T00:00:18;34.27;;;4.67;;
14133;SDS011;7147;59.364;18.018;2022-10-17T00:02:45;29.25;;;4.25;;
14133;SDS011;7147;59.364;18.018;2022-10-17T00:05:11;20.55;;;3.03;;
14133;SDS011;7147;59.364;18.018;2022-10-17T00:07:40;20.70;;;2.85;;
14133;SDS011;7147;59.364;18.018;2022-10-17T00:10:07;37.88;;;5.78;;
14133;SDS011;7147;59.364;18.018;2022-10-17T00:12:34;37.60;;;5.57;;
14133;SDS011;7147;59.364;18.018;2022-10-17T00:15:01;45.38;;;6.55;;
14133;SDS011;7147;59.364;18.018;2022-10-17T00:17:29;26.83;;;4.25;;
14133;SDS011;7147;59.364;18.018;2022-10-17T00:19:57;31.85;;;4.55;;
14133;SDS011;7147;59.364;18.018;2022-10-17T00:22:25;31.67;;;4.82;;
14133;SDS011;7147;59.364;18.018;2022-10-17T00:24:53;25.10;;;3.30;;
14133;SDS011;7147;59.364;18.018;2022-10-17T00:27:20;27.73;;;4.10;;
14133;SDS011;7147;59.364;18.018;2022-10-17T00:29:47;20.63;;;2.83;;
14133;SDS011;7147;59.364;18.018;2022-10-17T00:32:14;23.50;;;3.20;;
14133;SDS011;7147;59.364;18.018;2022-10-17T00:34:41;25.77;;;3.28;;
14133;SDS011;7147;59.364;18.018;2022-10-17T00:37:08;22.38;;;3.05;;
14133;SDS011;7147;59.364;18.018;2022-10-17T00:39:35;24.15;;;3.38;;
14133;SDS011;7147;59.364;18.018;2022-10-17T00:42:03;27.83;;;3.70;;
14133;SDS011;7147;59.364;18.018;2022-10-17T00:47:32;31.42;;;4.25;;
14133;SDS011;7147;59.364;18.018;2022-10-17T00:50:01;27.30;;;3.63;;
14133;SDS011;7147;59.364;18.018;2022-10-17T00:52:28;24.45;;;3.45;;
14133;SDS011;7147;59.364;18.018;2022-10-17T00:54:57;24.63;;;3.33;;
14133;SDS011;7147;59.364;18.018;2022-10-17T00:57:29;35.72;;;4.90;;
14133;SDS011;7147;59.364;18.018;2022-10-17T00:59:57;33.00;;;7.18;;
14133;SDS011;7147;59.364;18.018;2022-10-17T01:02:27;23.70;;;3.70;;
14133;SDS011;7147;59.364;18.018;2022-10-17T01:04:55;30.05;;;4.40;;
14133;SDS011;7147;59.364;18.018;2022-10-17T01:07:24;22.88;;;3.08;;
14133;SDS011;7147;59.364;18.018;2022-10-17T01:09:52;28.95;;;4.47;;
14133;SDS011;7147;59.364;18.018;2022-10-17T01:12:20;26.63;;;4.00;;
14133;SDS011;7147;59.364;18.018;2022-10-17T01:14:56;28.77;;;4.27;;
14133;SDS011;7147;59.364;18.018;2022-10-17T01:17:31;27.77;;;3.88;;
14133;SDS011;7147;59.364;18.018;2022-10-17T01:20:20;30.03;;;4.70;;
14133;SDS011;7147;59.364;18.018;2022-10-17T01:22:59;30.23;;;4.55;;
14133;SDS011;7147;59.364;18.018;2022-10-17T01:25:43;30.95;;;4.40;;
14133;SDS011;7147;59.364;18.018;2022-10-17T01:28:24;24.83;;;3.45;;
14133;SDS011;7147;59.364;18.018;2022-10-17T01:31:08;37.20;;;5.25;;
14133;SDS011;7147;59.364;18.018;2022-10-17T01:33:42;31.42;;;4.68;;
14133;SDS011;7147;59.364;18.018;2022-10-17T01:36:23;35.60;;;5.18;;
14133;SDS011;7147;59.364;18.018;2022-10-17T01:38:57;29.20;;;4.20;;
14133;SDS011;7147;59.364;18.018;2022-10-17T01:41:34;38.90;;;6.15;;
14133;SDS011;7147;59.364;18.018;2022-10-17T01:44:08;35.33;;;5.00;;
14133;SDS011;7147;59.364;18.018;2022-10-17T01:46:42;33.10;;;5.15;;
14133;SDS011;7147;59.364;18.018;2022-10-17T01:49:14;27.05;;;3.97;;
14133;SDS011;7147;59.364;18.018;2022-10-17T01:51:44;27.73;;;4.05;;
14133;SDS011;7147;59.364;18.018;2022-10-17T01:54:15;32.95;;;5.10;;
14133;SDS011;7147;59.364;18.018;2022-10-17T01:56:47;25.90;;;3.80;;
14133;SDS011;7147;59.364;18.018;2022-10-17T01:59:18;32.20;;;4.90;;
14133;SDS011;7147;59.364;18.018;2022-10-17T02:01:49;30.95;;;4.78;;
14133;SDS011;7147;59.364;18.018;2022-10-17T02:04:18;30.50;;;4.40;;
14133;SDS011;7147;59.364;18.018;2022-10-17T02:06:46;31.30;;;5.13;;
14133;SDS011;7147;59.364;18.018;2022-10-17T02:09:17;29.65;;;4.40;;
14133;SDS011;7147;59.364;18.018;2022-10-17T02:11:49;32.30;;;5.35;;
14133;SDS011;7147;59.364;18.018;2022-10-17T02:14:24;33.60;;;5.68;;
14133;SDS011;7147;59.364;18.018;2022-10-17T02:17:02;128.93;;;39.00;;
14133;SDS011;7147;59.364;18.018;2022-10-17T02:22:33;41.45;;;15.40;;
14133;SDS011;7147;59.364;18.018;2022-10-17T02:25:06;40.10;;;6.80;;
14133;SDS011;7147;59.364;18.018;2022-10-17T02:27:41;25.00;;;3.70;;
14133;SDS011;7147;59.364;18.018;2022-10-17T02:30:13;31.95;;;4.93;;
14133;SDS011;7147;59.364;18.018;2022-10-17T02:32:51;71.05;;;27.90;;
14133;SDS011;7147;59.364;18.018;2022-10-17T02:35:22;26.02;;;4.10;;
14133;SDS011;7147;59.364;18.018;2022-10-17T02:37:53;30.48;;;4.50;;
14133;SDS011;7147;59.364;18.018;2022-10-17T02:40:21;48.28;;;11.65;;
14133;SDS011;7147;59.364;18.018;2022-10-17T02:42:52;32.65;;;5.15;;
14133;SDS011;7147;59.364;18.018;2022-10-17T02:45:21;29.50;;;4.25;;
14133;SDS011;7147;59.364;18.018;2022-10-17T02:47:54;23.83;;;3.53;;
14133;SDS011;7147;59.364;18.018;2022-10-17T02:50:32;33.22;;;9.73;;
14133;SDS011;7147;59.364;18.018;2022-10-17T02:53:05;29.63;;;9.67;;
14133;SDS011;7147;59.364;18.018;2022-10-17T02:55:38;34.00;;;9.10;;
14133;SDS011;7147;59.364;18.018;2022-10-17T02:58:10;38.75;;;11.23;;
14133;SDS011;7147;59.364;18.018;2022-10-17T03:00:41;67.87;;;26.63;;
14133;SDS011;7147;59.364;18.018;2022-10-17T03:03:21;57.70;;;23.77;;
14133;SDS011;7147;59.364;18.018;2022-10-17T03:05:49;67.13;;;26.52;;
14133;SDS011;7147;59.364;18.018;2022-10-17T03:08:16;81.53;;;30.67;;
14133;SDS011;7147;59.364;18.018;2022-10-17T03:10:43;104.53;;;34.95;;
14133;SDS011;7147;59.364;18.018;2022-10-17T03:13:10;258.20;;;49.42;;
14133;SDS011;7147;59.364;18.018;2022-10-17T03:15:37;308.27;;;51.85;;
14133;SDS011;7147;59.364;18.018;2022-10-17T03:18:04;45.53;;;13.15;;
14133;SDS011;7147;59.364;18.018;2022-10-17T03:20:32;246.37;;;46.10;;
14133;SDS011;7147;59.364;18.018;2022-10-17T03:22:59;25.63;;;5.32;;
14133;SDS011;7147;59.364;18.018;2022-10-17T03:25:25;26.97;;;5.60;;
14133;SDS011;7147;59.364;18.018;2022-10-17T03:27:52;48.92;;;10.40;;
14133;SDS011;7147;59.364;18.018;2022-10-17T03:30:19;44.93;;;16.47;;
14133;SDS011;7147;59.364;18.018;2022-10-17T03:32:46;71.57;;;14.38;;
14133;SDS011;7147;59.364;18.018;2022-10-17T03:35:13;39.30;;;6.13;;
14133;SDS011;7147;59.364;18.018;2022-10-17T03:37:41;30.88;;;4.68;;
14133;SDS011;7147;59.364;18.018;2022-10-17T03:40:08;29.35;;;4.72;;
14133;SDS011;7147;59.364;18.018;2022-10-17T03:42:36;41.63;;;6.97;;
14133;SDS011;7147;59.364;18.018;2022-10-17T03:45:03;64.53;;;21.90;;
14133;SDS011;7147;59.364;18.018;2022-10-17T03:47:30;29.57;;;4.37;;
14133;SDS011;7147;59.364;18.018;2022-10-17T03:49:57;36.75;;;5.22;;
14133;SDS011;7147;59.364;18.018;2022-10-17T03:52:26;45.00;;;6.80;;
14133;SDS011;7147;59.364;18.018;2022-10-17T03:54:54;44.78;;;6.35;;
14133;SDS011;7147;59.364;18.018;2022-10-17T03:57:21;39.27;;;5.83;;
14133;SDS011;7147;59.364;18.018;2022-10-17T03:59:48;30.50;;;4.47;;
14133;SDS011;7147;59.364;18.018;2022-10-17T04:02:16;67.75;;;16.33;;
14133;SDS011;7147;59.364;18.018;2022-10-17T04:04:43;144.18;;;39.33;;
14133;SDS011;7147;59.364;18.018;2022-10-17T04:07:09;89.65;;;29.13;;
14133;SDS011;7147;59.364;18.018;2022-10-17T04:09:36;79.87;;;25.03;;
14133;SDS011;7147;59.364;18.018;2022-10-17T04:12:04;55.73;;;22.47;;
14133;SDS011;7147;59.364;18.018;2022-10-17T04:14:31;61.35;;;24.33;;
14133;SDS011;7147;59.364;18.018;2022-10-17T04:16:58;85.73;;;30.00;;
14133;SDS011;7147;59.364;18.018;2022-10-17T04:19:25;135.32;;;38.90;;
14133;SDS011;7147;59.364;18.018;2022-10-17T04:21:51;166.85;;;41.67;;
14133;SDS011;7147;59.364;18.018;2022-10-17T04:24:18;310.98;;;51.80;;
14133;SDS011;7147;59.364;18.018;2022-10-17T04:26:47;37.10;;;8.30;;
14133;SDS011;7147;59.364;18.018;2022-10-17T04:29:16;44.63;;;7.28;;
14133;SDS011;7147;59.364;18.018;2022-10-17T04:31:43;32.10;;;4.95;;
14133;SDS011;7147;59.364;18.018;2022-10-17T04:34:10;41.13;;;6.28;;
14133;SDS011;7147;59.364;18.018;2022-10-17T04:36:38;60.58;;;9.43;;
14133;SDS011;7147;59.364;18.018;2022-10-17T04:39:05;41.45;;;6.03;;
14133;SDS011;7147;59.364;18.018;2022-10-17T04:41:32;50.78;;;7.82;;
14133;SDS011;7147;59.364;18.018;2022-10-17T04:43:59;43.77;;;6.93;;
14133;SDS011;7147;59.364;18.018;2022-10-17T04:46:27;45.33;;;6.47;;
14133;SDS011;7147;59.364;18.018;2022-10-17T04:48:54;50.53;;;7.47;;
14133;SDS011;7147;59.364;18.018;2022-10-17T04:51:21;70.13;;;10.37;;
14133;SDS011;7147;59.364;18.018;2022-10-17T04:53:48;47.67;;;6.95;;
14133;SDS011;7147;59.364;18.018;2022-10-17T04:56:15;68.13;;;9.75;;
14133;SDS011;7147;59.364;18.018;2022-10-17T04:58:44;46.42;;;6.72;;
14133;SDS011;7147;59.364;18.018;2022-10-17T05:01:13;83.88;;;12.18;;
14133;SDS011;7147;59.364;18.018;2022-10-17T05:03:43;58.15;;;8.45;;
14133;SDS011;7147;59.364;18.018;2022-10-17T05:06:11;81.43;;;11.80;;
14133;SDS011;7147;59.364;18.018;2022-10-17T05:08:39;51.10;;;7.63;;
14133;SDS011;7147;59.364;18.018;2022-10-17T05:11:13;62.22;;;9.40;;
14133;SDS011;7147;59.364;18.018;2022-10-17T05:13:42;46.70;;;6.85;;
14133;SDS011;7147;59.364;18.018;2022-10-17T05:16:08;56.22;;;8.38;;
14133;SDS011;7147;59.364;18.018;2022-10-17T05:18:37;63.20;;;9.13;;
14133;SDS011;7147;59.364;18.018;2022-10-17T05:21:05;69.43;;;10.20;;
14133;SDS011;7147;59.364;18.018;2022-10-17T05:23:32;60.80;;;8.95;;
14133;SDS011;7147;59.364;18.018;2022-10-17T05:25:59;69.28;;;10.50;;
14133;SDS011;7147;59.364;18.018;2022-10-17T05:28:26;98.18;;;14.15;;
14133;SDS011;7147;59.364;18.018;2022-10-17T05:30:53;57.00;;;8.43;;
14133;SDS011;7147;59.364;18.018;2022-10-17T05:33:21;112.07;;;16.27;;
14133;SDS011;7147;59.364;18.018;2022-10-17T05:35:48;54.47;;;8.25;;
14133;SDS011;7147;59.364;18.018;2022-10-17T05:38:16;68.22;;;10.15;;
14133;SDS011;7147;59.364;18.018;2022-10-17T05:40:43;67.35;;;9.85;;
14133;SDS011;7147;59.364;18.018;2022-10-17T05:43:10;96.68;;;14.32;;
14133;SDS011;7147;59.364;18.018;2022-10-17T05:45:37;70.70;;;10.57;;
14133;SDS011;7147;59.364;18.018;2022-10-17T05:48:03;58.63;;;8.73;;
14133;SDS011;7147;59.364;18.018;2022-10-17T05:50:30;54.15;;;7.88;;
14133;SDS011;7147;59.364;18.018;2022-10-17T05:52:58;112.35;;;16.80;;
14133;SDS011;7147;59.364;18.018;2022-10-17T05:55:26;73.82;;;11.10;;
14133;SDS011;7147;59.364;18.018;2022-10-17T05:57:53;68.00;;;10.43;;
14133;SDS011;7147;59.364;18.018;2022-10-17T06:00:20;90.32;;;13.52;;
14133;SDS011;7147;59.364;18.018;2022-10-17T06:02:47;114.32;;;16.63;;
14133;SDS011;7147;59.364;18.018;2022-10-17T06:05:14;62.87;;;9.27;;
14133;SDS011;7147;59.364;18.018;2022-10-17T06:07:41;64.00;;;9.57;;
14133;SDS011;7147;59.364;18.018;2022-10-17T06:10:08;63.47;;;9.73;;
14133;SDS011;7147;59.364;18.018;2022-10-17T06:12:40;61.50;;;9.45;;
14133;SDS011;7147;59.364;18.018;2022-10-17T06:15:07;54.47;;;8.52;;
14133;SDS011;7147;59.364;18.018;2022-10-17T06:17:37;54.72;;;8.27;;
14133;SDS011;7147;59.364;18.018;2022-10-17T06:20:06;263.80;;;54.75;;
14133;SDS011;7147;59.364;18.018;2022-10-17T06:22:33;148.43;;;38.85;;
14133;SDS011;7147;59.364;18.018;2022-10-17T06:25:00;113.95;;;35.65;;
14133;SDS011;7147;59.364;18.018;2022-10-17T06:27:27;165.18;;;42.92;;
14133;SDS011;7147;59.364;18.018;2022-10-17T06:29:56;364.13;;;61.65;;
14133;SDS011;7147;59.364;18.018;2022-10-17T06:32:22;109.63;;;16.15;;
14133;SDS011;7147;59.364;18.018;2022-10-17T06:34:49;103.67;;;15.27;;
14133;SDS011;7147;59.364;18.018;2022-10-17T06:37:16;61.25;;;9.15;;
14133;SDS011;7147;59.364;18.018;2022-10-17T06:39:43;57.30;;;8.85;;
14133;SDS011;7147;59.364;18.018;2022-10-17T06:42:09;72.03;;;10.93;;
14133;SDS011;7147;59.364;18.018;2022-10-17T06:44:36;72.95;;;11.15;;
14133;SDS011;7147;59.364;18.018;2022-10-17T06:47:05;77.63;;;11.77;;
14133;SDS011;7147;59.364;18.018;2022-10-17T06:49:32;67.57;;;10.50;;
14133;SDS011;7147;59.364;18.018;2022-10-17T06:51:59;77.10;;;11.80;;
14133;SDS011;7147;59.364;18.018;2022-10-17T06:54:26;91.13;;;14.17;;
14133;SDS011;7147;59.364;18.018;2022-10-17T06:56:53;60.88;;;9.48;;
14133;SDS011;7147;59.364;18.018;2022-10-17T06:59:21;75.35;;;11.75;;
14133;SDS011;7147;59.364;18.018;2022-10-17T07:01:48;64.05;;;9.75;;
14133;SDS011;7147;59.364;18.018;2022-10-17T07:04:16;77.57;;;11.52;;
14133;SDS011;7147;59.364;18.018;2022-10-17T07:06:43;62.55;;;9.70;;
14133;SDS011;7147;59.364;18.018;2022-10-17T07:09:10;44.63;;;6.87;;
14133;SDS011;7147;59.364;18.018;2022-10-17T07:11:37;36.47;;;5.47;;
14133;SDS011;7147;59.364;18.018;2022-10-17T07:14:04;55.75;;;8.43;;
14133;SDS011;7147;59.364;18.018;2022-10-17T07:16:31;40.92;;;6.20;;
14133;SDS011;7147;59.364;18.018;2022-10-17T07:18:58;50.33;;;7.80;;
14133;SDS011;7147;59.364;18.018;2022-10-17T07:21:26;49.10;;;7.40;;
14133;SDS011;7147;59.364;18.018;2022-10-17T07:23:53;53.22;;;8.40;;
14133;SDS011;7147;59.364;18.018;2022-10-17T07:26:20;49.83;;;7.45;;
14133;SDS011;7147;59.364;18.018;2022-10-17T07:28:52;52.87;;;8.10;;
14133;SDS011;7147;59.364;18.018;2022-10-17T07:31:21;51.38;;;7.90;;
14133;SDS011;7147;59.364;18.018;2022-10-17T07:33:48;41.55;;;6.50;;
14133;SDS011;7147;59.364;18.018;2022-10-17T07:36:16;46.97;;;7.15;;
14133;SDS011;7147;59.364;18.018;2022-10-17T07:38:44;39.13;;;5.93;;
14133;SDS011;7147;59.364;18.018;2022-10-17T07:41:11;47.03;;;7.25;;
14133;SDS011;7147;59.364;18.018;2022-10-17T07:43:38;50.28;;;7.82;;
14133;SDS011;7147;59.364;18.018;2022-10-17T07:46:07;45.80;;;6.95;;
14133;SDS011;7147;59.364;18.018;2022-10-17T07:48:35;60.85;;;9.23;;
14133;SDS011;7147;59.364;18.018;2022-10-17T07:51:03;84.47;;;12.65;;
14133;SDS011;7147;59.364;18.018;2022-10-17T07:53:31;45.78;;;6.88;;
14133;SDS011;7147;59.364;18.018;2022-10-17T07:56:03;39.53;;;6.25;;
14133;SDS011;7147;59.364;18.018;2022-10-17T07:58:32;59.67;;;9.55;;
14133;SDS011;7147;59.364;18.018;2022-10-17T08:00:59;55.70;;;8.80;;
14133;SDS011;7147;59.364;18.018;2022-10-17T08:03:26;40.95;;;6.68;;
14133;SDS011;7147;59.364;18.018;2022-10-17T08:05:55;60.72;;;9.45;;
14133;SDS011;7147;59.364;18.018;2022-10-17T08:08:23;52.25;;;8.23;;
14133;SDS011;7147;59.364;18.018;2022-10-17T08:10:50;47.97;;;7.30;;
14133;SDS011;7147;59.364;18.018;2022-10-17T08:13:18;42.75;;;6.45;;
14133;SDS011;7147;59.364;18.018;2022-10-17T08:15:45;51.70;;;8.40;;
14133;SDS011;7147;59.364;18.018;2022-10-17T08:18:13;41.67;;;6.53;;
14133;SDS011;7147;59.364;18.018;2022-10-17T08:20:40;54.00;;;8.07;;
14133;SDS011;7147;59.364;18.018;2022-10-17T08:23:07;55.67;;;8.25;;
14133;SDS011;7147;59.364;18.018;2022-10-17T08:25:36;42.38;;;6.28;;
14133;SDS011;7147;59.364;18.018;2022-10-17T08:28:04;50.10;;;7.30;;
14133;SDS011;7147;59.364;18.018;2022-10-17T08:30:32;46.22;;;6.60;;
14133;SDS011;7147;59.364;18.018;2022-10-17T08:33:00;62.55;;;9.32;;
14133;SDS011;7147;59.364;18.018;2022-10-17T08:35:27;44.33;;;6.90;;
14133;SDS011;7147;59.364;18.018;2022-10-17T08:37:54;47.42;;;7.13;;
14133;SDS011;7147;59.364;18.018;2022-10-17T08:40:21;59.13;;;8.97;;
14133;SDS011;7147;59.364;18.018;2022-10-17T08:42:58;80.37;;;12.63;;
14133;SDS011;7147;59.364;18.018;2022-10-17T08:45:37;71.78;;;11.10;;
14133;SDS011;7147;59.364;18.018;2022-10-17T08:48:11;47.07;;;7.30;;
14133;SDS011;7147;59.364;18.018;2022-10-17T08:50:42;55.92;;;8.82;;
14133;SDS011;7147;59.364;18.018;2022-10-17T08:53:13;56.03;;;8.75;;
14133;SDS011;7147;59.364;18.018;2022-10-17T08:55:45;48.17;;;7.38;;
14133;SDS011;7147;59.364;18.018;2022-10-17T08:58:13;43.47;;;7.00;;
14133;SDS011;7147;59.364;18.018;2022-10-17T09:00:47;61.50;;;9.73;;
14133;SDS011;7147;59.364;18.018;2022-10-17T09:03:28;71.47;;;14.20;;
14133;SDS011;7147;59.364;18.018;2022-10-17T09:06:10;43.58;;;7.10;;
14133;SDS011;7147;59.364;18.018;2022-10-17T09:08:44;58.40;;;10.00;;
14133;SDS011;7147;59.364;18.018;2022-10-17T09:11:22;43.33;;;7.17;;
14133;SDS011;7147;59.364;18.018;2022-10-17T09:14:02;53.60;;;10.80;;
14133;SDS011;7147;59.364;18.018;2022-10-17T09:16:47;55.77;;;12.80;;
14133;SDS011;7147;59.364;18.018;2022-10-17T09:19:23;56.40;;;16.47;;
14133;SDS011;7147;59.364;18.018;2022-10-17T09:21:54;48.72;;;9.35;;
14133;SDS011;7147;59.364;18.018;2022-10-17T09:24:38;97.88;;;23.63;;
14133;SDS011;7147;59.364;18.018;2022-10-17T09:27:11;49.28;;;8.98;;
14133;SDS011;7147;59.364;18.018;2022-10-17T09:29:45;57.00;;;10.77;;
14133;SDS011;7147;59.364;18.018;2022-10-17T09:32:18;70.63;;;14.80;;
14133;SDS011;7147;59.364;18.018;2022-10-17T09:34:48;49.05;;;11.38;;
14133;SDS011;7147;59.364;18.018;2022-10-17T09:37:15;49.07;;;14.37;;
14133;SDS011;7147;59.364;18.018;2022-10-17T09:39:43;47.47;;;7.63;;
14133;SDS011;7147;59.364;18.018;2022-10-17T09:42:12;44.78;;;7.43;;
14133;SDS011;7147;59.364;18.018;2022-10-17T09:44:42;49.17;;;8.10;;
14133;SDS011;7147;59.364;18.018;2022-10-17T09:50:07;67.07;;;20.10;;
14133;SDS011;7147;59.364;18.018;2022-10-17T09:52:41;71.50;;;25.50;;
14133;SDS011;7147;59.364;18.018;2022-10-17T09:55:14;100.77;;;32.17;;
14133;SDS011;7147;59.364;18.018;2022-10-17T09:57:53;58.78;;;21.30;;
14133;SDS011;7147;59.364;18.018;2022-10-17T10:00:23;60.33;;;20.13;;
14133;SDS011;7147;59.364;18.018;2022-10-17T10:03:04;88.90;;;15.10;;
14133;SDS011;7147;59.364;18.018;2022-10-17T10:05:34;63.08;;;14.98;;
14133;SDS011;7147;59.364;18.018;2022-10-17T10:08:02;105.47;;;25.88;;
14133;SDS011;7147;59.364;18.018;2022-10-17T10:10:31;43.10;;;6.57;;
14133;SDS011;7147;59.364;18.018;2022-10-17T10:13:05;34.10;;;4.95;;
14133;SDS011;7147;59.364;18.018;2022-10-17T10:15:41;38.40;;;5.57;;
14133;SDS011;7147;59.364;18.018;2022-10-17T10:18:28;32.20;;;4.93;;
14133;SDS011;7147;59.364;18.018;2022-10-17T10:21:07;26.63;;;3.80;;
14133;SDS011;7147;59.364;18.018;2022-10-17T10:23:36;58.88;;;8.40;;
14133;SDS011;7147;59.364;18.018;2022-10-17T10:26:10;28.07;;;4.07;;
14133;SDS011;7147;59.364;18.018;2022-10-17T10:28:54;33.63;;;4.97;;
14133;SDS011;7147;59.364;18.018;2022-10-17T10:31:24;38.50;;;5.70;;
14133;SDS011;7147;59.364;18.018;2022-10-17T10:33:55;38.88;;;5.55;;
14133;SDS011;7147;59.364;18.018;2022-10-17T10:36:24;53.85;;;7.75;;
14133;SDS011;7147;59.364;18.018;2022-10-17T10:38:51;51.65;;;7.45;;
14133;SDS011;7147;59.364;18.018;2022-10-17T10:41:21;43.58;;;6.20;;
14133;SDS011;7147;59.364;18.018;2022-10-17T10:43:51;42.10;;;6.40;;
14133;SDS011;7147;59.364;18.018;2022-10-17T10:46:21;40.80;;;6.20;;
14133;SDS011;7147;59.364;18.018;2022-10-17T10:48:52;49.22;;;7.00;;
14133;SDS011;7147;59.364;18.018;2022-10-17T10:51:23;38.92;;;5.75;;
14133;SDS011;7147;59.364;18.018;2022-10-17T10:53:56;90.55;;;12.88;;
14133;SDS011;7147;59.364;18.018;2022-10-17T10:56:28;51.80;;;7.20;;
14133;SDS011;7147;59.364;18.018;2022-10-17T10:58:59;38.95;;;5.68;;
14133;SDS011;7147;59.364;18.018;2022-10-17T11:01:31;45.05;;;6.82;;
14133;SDS011;7147;59.364;18.018;2022-10-17T11:04:05;40.42;;;6.03;;
14133;SDS011;7147;59.364;18.018;2022-10-17T11:06:44;74.45;;;10.63;;
14133;SDS011;7147;59.364;18.018;2022-10-17T11:09:13;32.88;;;4.88;;
14133;SDS011;7147;59.364;18.018;2022-10-17T11:12:01;40.13;;;5.88;;
14133;SDS011;7147;59.364;18.018;2022-10-17T11:14:37;36.35;;;5.30;;
14133;SDS011;7147;59.364;18.018;2022-10-17T11:17:11;40.20;;;5.80;;
14133;SDS011;7147;59.364;18.018;2022-10-17T11:19:47;35.47;;;5.07;;
14133;SDS011;7147;59.364;18.018;2022-10-17T11:22:25;32.92;;;4.88;;
14133;SDS011;7147;59.364;18.018;2022-10-17T11:24:57;37.63;;;5.57;;
14133;SDS011;7147;59.364;18.018;2022-10-17T11:27:26;56.53;;;7.97;;
14133;SDS011;7147;59.364;18.018;2022-10-17T11:29:54;32.45;;;4.78;;
14133;SDS011;7147;59.364;18.018;2022-10-17T11:32:23;32.67;;;4.77;;
14133;SDS011;7147;59.364;18.018;2022-10-17T11:34:56;30.35;;;4.50;;
14133;SDS011;7147;59.364;18.018;2022-10-17T11:37:29;32.25;;;4.68;;
14133;SDS011;7147;59.364;18.018;2022-10-17T11:40:01;39.57;;;5.73;;
14133;SDS011;7147;59.364;18.018;2022-10-17T11:42:32;37.55;;;5.55;;
14133;SDS011;7147;59.364;18.018;2022-10-17T11:45:04;36.85;;;5.20;;
14133;SDS011;7147;59.364;18.018;2022-10-17T11:47:39;47.70;;;6.78;;
14133;SDS011;7147;59.364;18.018;2022-10-17T11:50:21;40.92;;;5.85;;
14133;SDS011;7147;59.364;18.018;2022-10-17T11:52:53;45.33;;;6.70;;
14133;SDS011;7147;59.364;18.018;2022-10-17T11:55:24;40.90;;;5.93;;
14133;SDS011;7147;59.364;18.018;2022-10-17T11:57:59;36.10;;;5.32;;
14133;SDS011;7147;59.364;18.018;2022-10-17T12:00:40;27.83;;;4.07;;
14133;SDS011;7147;59.364;18.018;2022-10-17T12:03:20;27.13;;;3.88;;
14133;SDS011;7147;59.364;18.018;2022-10-17T12:05:58;61.72;;;8.25;;
14133;SDS011;7147;59.364;18.018;2022-10-17T12:08:37;100.40;;;13.13;;
14133;SDS011;7147;59.364;18.018;2022-10-17T12:11:10;59.50;;;8.52;;
14133;SDS011;7147;59.364;18.018;2022-10-17T12:13:51;41.83;;;6.28;;
14133;SDS011;7147;59.364;18.018;2022-10-17T12:16:36;41.63;;;6.30;;
14133;SDS011;7147;59.364;18.018;2022-10-17T12:19:23;51.40;;;7.73;;
14133;SDS011;7147;59.364;18.018;2022-10-17T12:21:58;30.55;;;4.38;;
14133;SDS011;7147;59.364;18.018;2022-10-17T12:24:36;76.35;;;10.70;;
14133;SDS011;7147;59.364;18.018;2022-10-17T12:30:00;32.78;;;4.75;;
14133;SDS011;7147;59.364;18.018;2022-10-17T12:32:30;42.10;;;5.97;;
14133;SDS011;7147;59.364;18.018;2022-10-17T12:34:57;27.83;;;4.05;;
14133;SDS011;7147;59.364;18.018;2022-10-17T12:40:50;41.15;;;5.65;;
14133;SDS011;7147;59.364;18.018;2022-10-17T12:43:44;44.77;;;6.37;;
14133;SDS011;7147;59.364;18.018;2022-10-17T12:46:39;34.03;;;5.05;;
14133;SDS011;7147;59.364;18.018;2022-10-17T12:49:22;35.33;;;5.20;;
14133;SDS011;7147;59.364;18.018;2022-10-17T12:54:53;44.88;;;6.43;;
14133;SDS011;7147;59.364;18.018;2022-10-17T12:57:31;51.83;;;7.32;;
14133;SDS011;7147;59.364;18.018;2022-10-17T13:00:05;32.43;;;4.80;;
14133;SDS011;7147;59.364;18.018;2022-10-17T13:02:42;42.20;;;6.07;;
14133;SDS011;7147;59.364;18.018;2022-10-17T13:05:11;36.88;;;5.30;;
14133;SDS011;7147;59.364;18.018;2022-10-17T13:07:42;45.58;;;6.60;;
14133;SDS011;7147;59.364;18.018;2022-10-17T13:10:20;28.20;;;4.33;;
14133;SDS011;7147;59.364;18.018;2022-10-17T13:12:50;30.10;;;4.37;;
14133;SDS011;7147;59.364;18.018;2022-10-17T13:15:22;32.00;;;4.72;;
14133;SDS011;7147;59.364;18.018;2022-10-17T13:17:58;41.78;;;6.18;;
14133;SDS011;7147;59.364;18.018;2022-10-17T13:20:27;55.80;;;8.53;;
14133;SDS011;7147;59.364;18.018;2022-10-17T13:22:55;47.03;;;7.10;;
14133;SDS011;7147;59.364;18.018;2022-10-17T13:25:23;104.20;;;15.40;;
14133;SDS011;7147;59.364;18.018;2022-10-17T13:28:01;35.97;;;5.45;;
14133;SDS011;7147;59.364;18.018;2022-10-17T13:30:32;46.75;;;6.60;;
14133;SDS011;7147;59.364;18.018;2022-10-17T13:33:00;39.03;;;5.60;;
14133;SDS011;7147;59.364;18.018;2022-10-17T13:35:29;73.70;;;11.00;;
14133;SDS011;7147;59.364;18.018;2022-10-17T13:37:59;46.38;;;6.47;;
14133;SDS011;7147;59.364;18.018;2022-10-17T13:40:31;86.72;;;12.20;;
14133;SDS011;7147;59.364;18.018;2022-10-17T13:43:10;76.35;;;11.13;;
14133;SDS011;7147;59.364;18.018;2022-10-17T13:45:44;39.53;;;5.82;;
14133;SDS011;7147;59.364;18.018;2022-10-17T13:48:17;71.05;;;10.60;;
14133;SDS011;7147;59.364;18.018;2022-10-17T13:50:46;45.00;;;6.07;;
14133;SDS011;7147;59.364;18.018;2022-10-17T13:53:17;36.00;;;4.90;;
14133;SDS011;7147;59.364;18.018;2022-10-17T13:55:54;42.25;;;6.50;;
14133;SDS011;7147;59.364;18.018;2022-10-17T13:58:28;59.33;;;8.18;;
14133;SDS011;7147;59.364;18.018;2022-10-17T14:00:59;45.13;;;6.40;;
14133;SDS011;7147;59.364;18.018;2022-10-17T14:03:26;44.17;;;6.55;;
14133;SDS011;7147;59.364;18.018;2022-10-17T14:06:00;63.92;;;9.10;;
14133;SDS011;7147;59.364;18.018;2022-10-17T14:08:31;76.27;;;10.63;;
14133;SDS011;7147;59.364;18.018;2022-10-17T14:10:59;60.95;;;9.35;;
14133;SDS011;7147;59.364;18.018;2022-10-17T14:13:29;55.60;;;8.13;;
14133;SDS011;7147;59.364;18.018;2022-10-17T14:16:00;61.65;;;8.85;;
14133;SDS011;7147;59.364;18.018;2022-10-17T14:18:29;54.45;;;7.97;;
14133;SDS011;7147;59.364;18.018;2022-10-17T14:20:58;53.55;;;7.78;;
14133;SDS011;7147;59.364;18.018;2022-10-17T14:23:30;60.95;;;8.15;;
14133;SDS011;7147;59.364;18.018;2022-10-17T14:26:09;51.00;;;7.53;;
14133;SDS011;7147;59.364;18.018;2022-10-17T14:28:43;47.17;;;6.65;;
14133;SDS011;7147;59.364;18.018;2022-10-17T14:31:20;67.63;;;10.00;;
14133;SDS011;7147;59.364;18.018;2022-10-17T14:33:54;62.25;;;8.93;;
14133;SDS011;7147;59.364;18.018;2022-10-17T14:36:32;41.80;;;6.05;;
14133;SDS011;7147;59.364;18.018;2022-10-17T14:39:02;97.20;;;13.68;;
14133;SDS011;7147;59.364;18.018;2022-10-17T14:41:31;59.47;;;8.57;;
14133;SDS011;7147;59.364;18.018;2022-10-17T14:44:02;62.75;;;8.75;;
14133;SDS011;7147;59.364;18.018;2022-10-17T14:46:32;55.95;;;8.30;;
14133;SDS011;7147;59.364;18.018;2022-10-17T14:49:02;69.20;;;9.95;;
14133;SDS011;7147;59.364;18.018;2022-10-17T14:51:31;58.05;;;8.38;;
14133;SDS011;7147;59.364;18.018;2022-10-17T14:54:00;57.77;;;8.40;;
14133;SDS011;7147;59.364;18.018;2022-10-17T14:56:33;74.15;;;10.73;;
14133;SDS011;7147;59.364;18.018;2022-10-17T14:59:06;60.08;;;8.27;;
14133;SDS011;7147;59.364;18.018;2022-10-17T15:01:34;57.20;;;8.50;;
14133;SDS011;7147;59.364;18.018;2022-10-17T15:04:01;138.52;;;18.80;;
14133;SDS011;7147;59.364;18.018;2022-10-17T15:06:29;54.85;;;8.15;;
14133;SDS011;7147;59.364;18.018;2022-10-17T15:09:01;60.47;;;8.60;;